Terminal Aerodrome Forecast
Issued by NWS Jacksonville, FL

Home | Current Version | Previous Version | Text Only | Print | Product List | Glossary On
Versions: 1 2 3 4 5 6 7 8 9 10 11 12 13 14 15 16 17 18 19 20 21 22 23 24 25 26 27 28 29 30
358
FTUS42 KJAX 171300 AAA
TAFGNV
TAF AMD
KGNV 171300Z 1713/1812 00000KT P6SM BKN001 OVC010
      TEMPO 1713/1714 SCT002 BKN010
     FM171400 18006KT P6SM FEW010 SCT025 SCT250
     FM171900 21008KT P6SM SCT040 BKN250
     FM180100 VRB03KT P6SM SCT050 BKN250
     FM180400 00000KT 3SM BR SCT002=

USA.gov is the U.S. government's official web portal to all federal, state and local government web resources and services.